Time;durP1;ratioP1;P1;durP2;ratioP2;P2;SDS_P1;SDS_P2;PMS_P1;PMS_P2;Temp;Humidity;BMP_temperature;BMP_pressure;BME280_temperature;BME280_humidity;BME280_pressure;Samples;Min_cycle;Max_cycle;Signal;HPM_P1;HPM_P2
2021/07/31 00:00:23;;;;;;;;;;;18.50;81.80;;;;;;5052114;28;20043;-62
2021/07/31 00:02:51;;;;;;;;;;;18.50;82.00;;;;;;5051751;28;19923;-62
2021/07/31 00:05:17;;;;;;;;;;;18.50;82.10;;;;;;5050371;28;20423;-62
2021/07/31 00:07:43;;;;;;;;;;;18.40;82.10;;;;;;5033415;28;19921;-62
2021/07/31 00:10:09;;;;;;;;;;;18.40;82.20;;;;;;5051605;28;19920;-62
2021/07/31 00:12:34;;;;;;;;;;;18.40;82.10;;;;;;5033514;28;19952;-62
2021/07/31 00:15:00;;;;;;;;;;;18.30;82.10;;;;;;5051668;28;19955;-61
2021/07/31 00:17:25;;;;;;;;;;;18.20;82.40;;;;;;5051242;28;20016;-62
2021/07/31 00:19:51;;;;;;;;;;;18.20;82.60;;;;;;5033294;28;19971;-62
2021/07/31 00:22:16;;;;;;;;;;;18.20;82.80;;;;;;5033720;28;19917;-62
2021/07/31 00:24:44;;;;;;;;;;;18.20;82.90;;;;;;5050465;28;21292;-62
2021/07/31 00:27:09;;;;;;;;;;;18.20;83.10;;;;;;5051247;28;19917;-62
2021/07/31 00:29:35;;;;;;;;;;;18.20;83.00;;;;;;5050977;28;20015;-62
2021/07/31 00:32:01;;;;;;;;;;;18.10;83.00;;;;;;5050946;28;19966;-62
2021/07/31 00:34:26;;;;;;;;;;;18.10;83.10;;;;;;5051324;28;19922;-61
2021/07/31 00:36:52;;;;;;;;;;;18.10;83.10;;;;;;5051006;28;19944;-62
2021/07/31 00:39:17;;;;;;;;;;;18.10;83.10;;;;;;5050887;28;19931;-62
2021/07/31 00:41:44;;;;;;;;;;;18.00;83.10;;;;;;5051234;28;20400;-62
2021/07/31 00:44:10;;;;;;;;;;;18.00;83.20;;;;;;5050798;28;19921;-62
2021/07/31 00:46:35;;;;;;;;;;;18.00;83.40;;;;;;5033199;28;19917;-62
2021/07/31 00:49:02;;;;;;;;;;;17.90;83.40;;;;;;5081385;22;19924;-60
2021/07/31 00:51:29;;;;;;;;;;;17.90;83.50;;;;;;5052873;28;19919;-60
2021/07/31 00:53:55;;;;;;;;;;;17.90;83.40;;;;;;5053341;28;19916;-60
2021/07/31 00:56:21;;;;;;;;;;;17.90;83.50;;;;;;5071188;28;19917;-60
2021/07/31 00:58:46;;;;;;;;;;;17.90;83.60;;;;;;5052396;28;19923;-60
2021/07/31 01:01:14;;;;;;;;;;;17.90;83.80;;;;;;5053139;28;19917;-60
2021/07/31 01:03:40;;;;;;;;;;;17.90;83.80;;;;;;5070593;28;19947;-60
2021/07/31 01:06:06;;;;;;;;;;;17.90;83.80;;;;;;5071033;28;19923;-60
2021/07/31 01:08:32;;;;;;;;;;;17.90;83.90;;;;;;5052948;28;19923;-60
2021/07/31 01:11:01;;;;;;;;;;;17.90;83.80;;;;;;5070550;28;20291;-60
2021/07/31 01:13:29;;;;;;;;;;;17.90;83.80;;;;;;5070949;28;20011;-60
2021/07/31 01:15:59;;;;;;;;;;;17.90;83.90;;;;;;5070681;28;19952;-60
2021/07/31 01:18:26;;;;;;;;;;;17.90;83.80;;;;;;5056610;28;20381;-60
2021/07/31 01:20:51;;;;;;;;;;;17.90;83.70;;;;;;5056898;28;20027;-60
2021/07/31 01:23:17;;;;;;;;;;;17.80;83.60;;;;;;5056292;28;19935;-60
2021/07/31 01:25:43;;;;;;;;;;;17.80;83.50;;;;;;5056953;28;20287;-60
2021/07/31 01:28:10;;;;;;;;;;;17.80;83.50;;;;;;5074311;28;19966;-60
2021/07/31 01:30:35;;;;;;;;;;;17.80;83.50;;;;;;5056437;28;19917;-60
2021/07/31 01:33:02;;;;;;;;;;;17.70;83.50;;;;;;5056723;28;19916;-60
2021/07/31 01:35:27;;;;;;;;;;;17.70;83.30;;;;;;5073982;28;20404;-60
2021/07/31 01:37:55;;;;;;;;;;;17.60;83.00;;;;;;5056342;28;20195;-60
2021/07/31 01:40:21;;;;;;;;;;;17.50;83.00;;;;;;5056470;28;19923;-60
2021/07/31 01:42:46;;;;;;;;;;;17.50;83.30;;;;;;5056272;28;20042;-60
2021/07/31 01:45:12;;;;;;;;;;;17.40;83.30;;;;;;5074310;28;20376;-60
2021/07/31 01:47:41;;;;;;;;;;;17.30;83.10;;;;;;5055448;28;20478;-61
2021/07/31 01:50:07;;;;;;;;;;;17.30;83.20;;;;;;5074220;28;20280;-60
2021/07/31 01:52:41;;;;;;;;;;;17.20;83.20;;;;;;5040452;28;19923;-61
2021/07/31 01:55:07;;;;;;;;;;;17.20;83.20;;;;;;5056137;28;19916;-60
2021/07/31 01:57:34;;;;;;;;;;;17.10;83.40;;;;;;5073961;28;19958;-60
2021/07/31 02:00:25;;;;;;;;;;;17.10;83.60;;;;;;5059070;28;19967;-60
2021/07/31 02:03:14;;;;;;;;;;;17.00;83.60;;;;;;5073568;28;19930;-60
2021/07/31 02:05:55;;;;;;;;;;;17.00;83.80;;;;;;5056091;28;19916;-60
2021/07/31 02:08:21;;;;;;;;;;;17.00;84.10;;;;;;5038596;28;20011;-61
2021/07/31 02:10:52;;;;;;;;;;;17.00;84.30;;;;;;5074046;28;20369;-60
2021/07/31 02:13:18;;;;;;;;;;;16.90;84.30;;;;;;5055639;28;19924;-61
2021/07/31 02:15:45;;;;;;;;;;;16.90;84.30;;;;;;5055993;28;19923;-60
2021/07/31 02:18:14;;;;;;;;;;;16.90;84.40;;;;;;5056175;28;19987;-60
2021/07/31 02:20:40;;;;;;;;;;;16.80;84.40;;;;;;5055265;28;20012;-60
2021/07/31 02:23:15;;;;;;;;;;;16.80;84.40;;;;;;5055674;28;19920;-60
2021/07/31 02:25:59;;;;;;;;;;;16.80;84.40;;;;;;5073469;28;20007;-60
2021/07/31 02:28:43;;;;;;;;;;;16.80;84.40;;;;;;5072727;28;19996;-60
2021/07/31 02:31:12;;;;;;;;;;;16.70;84.40;;;;;;5073078;28;20348;-60
2021/07/31 02:33:39;;;;;;;;;;;16.60;84.30;;;;;;5073421;28;20275;-60
2021/07/31 02:36:05;;;;;;;;;;;16.60;84.30;;;;;;5055062;28;19916;-60
2021/07/31 02:38:37;;;;;;;;;;;16.60;84.20;;;;;;5035305;28;19917;-60
2021/07/31 02:41:04;;;;;;;;;;;16.60;84.20;;;;;;5055107;28;19923;-60
2021/07/31 02:43:34;;;;;;;;;;;16.60;84.20;;;;;;5073223;28;20402;-60
2021/07/31 02:46:04;;;;;;;;;;;16.50;84.30;;;;;;5055298;28;20352;-60
2021/07/31 02:48:30;;;;;;;;;;;16.50;84.20;;;;;;5072382;28;19943;-60
2021/07/31 02:51:06;;;;;;;;;;;16.40;84.20;;;;;;5055256;28;19923;-60
2021/07/31 02:53:54;;;;;;;;;;;16.40;84.10;;;;;;5062063;28;20288;-60
2021/07/31 02:56:20;;;;;;;;;;;16.40;84.20;;;;;;5073178;28;19917;-62
2021/07/31 02:58:46;;;;;;;;;;;16.30;84.10;;;;;;5054469;28;19912;-60
2021/07/31 03:01:12;;;;;;;;;;;16.30;84.10;;;;;;5054906;28;19917;-60
2021/07/31 03:03:38;;;;;;;;;;;16.30;84.00;;;;;;5054965;28;20291;-61
2021/07/31 03:06:05;;;;;;;;;;;16.30;84.30;;;;;;5072399;28;19962;-61
2021/07/31 03:08:33;;;;;;;;;;;16.30;84.60;;;;;;5054593;28;20317;-62
2021/07/31 03:11:00;;;;;;;;;;;16.40;84.70;;;;;;5072332;28;20427;-61
2021/07/31 03:13:26;;;;;;;;;;;16.50;84.40;;;;;;5072600;28;19922;-61
2021/07/31 03:15:53;;;;;;;;;;;16.40;84.00;;;;;;5072639;28;20292;-61
2021/07/31 03:18:19;;;;;;;;;;;16.40;83.80;;;;;;5053856;28;20021;-62
2021/07/31 03:20:46;;;;;;;;;;;16.40;83.70;;;;;;5054779;28;19952;-61
2021/07/31 03:23:14;;;;;;;;;;;16.30;83.60;;;;;;5054515;28;20380;-62
2021/07/31 03:25:41;;;;;;;;;;;16.30;83.60;;;;;;5072205;28;20394;-61
2021/07/31 03:28:06;;;;;;;;;;;16.20;83.60;;;;;;5037723;28;20003;-61
2021/07/31 03:30:41;;;;;;;;;;;16.20;83.50;;;;;;5054051;28;20478;-62
2021/07/31 03:33:11;;;;;;;;;;;16.10;83.40;;;;;;5054277;28;19925;-61
2021/07/31 03:35:38;;;;;;;;;;;16.10;83.50;;;;;;5071863;28;19922;-61
2021/07/31 03:38:24;;;;;;;;;;;16.20;83.80;;;;;;5056869;28;19955;-62
2021/07/31 03:40:52;;;;;;;;;;;16.20;83.90;;;;;;5070784;28;19935;-62
2021/07/31 03:43:21;;;;;;;;;;;16.30;83.70;;;;;;5054173;28;19924;-61
2021/07/31 03:45:47;;;;;;;;;;;16.30;83.40;;;;;;5053595;28;19920;-61
2021/07/31 03:55:27;;;;;;;;;;;16.30;83.50;;;;;;5071830;28;20012;-61
2021/07/31 03:57:53;;;;;;;;;;;16.40;83.80;;;;;;5053169;28;19916;-62
2021/07/31 04:00:19;;;;;;;;;;;16.50;83.70;;;;;;5053934;28;19920;-61
2021/07/31 04:02:53;;;;;;;;;;;16.60;83.50;;;;;;5053681;28;20449;-61
2021/07/31 04:05:18;;;;;;;;;;;16.70;83.20;;;;;;5053397;28;19928;-61
2021/07/31 04:08:04;;;;;;;;;;;16.70;82.90;;;;;;5055938;28;19916;-62
2021/07/31 04:11:04;;;;;;;;;;;16.80;82.70;;;;;;5071500;28;19965;-61
2021/07/31 04:13:48;;;;;;;;;;;16.80;82.30;;;;;;5071197;28;19923;-61
2021/07/31 04:16:19;;;;;;;;;;;16.90;82.00;;;;;;5037887;28;20012;-61
2021/07/31 04:18:45;;;;;;;;;;;16.90;81.80;;;;;;5036732;28;20356;-62
2021/07/31 04:21:11;;;;;;;;;;;17.00;81.70;;;;;;5071182;28;19924;-61
2021/07/31 04:23:41;;;;;;;;;;;17.00;81.30;;;;;;5053424;28;20420;-61
2021/07/31 04:26:10;;;;;;;;;;;17.10;81.20;;;;;;5052917;28;19939;-61
2021/07/31 04:28:36;;;;;;;;;;;17.10;80.80;;;;;;5070920;28;19920;-62
2021/07/31 04:31:05;;;;;;;;;;;17.10;80.50;;;;;;5071247;28;19923;-61
2021/07/31 04:33:30;;;;;;;;;;;17.20;80.40;;;;;;5053198;28;19917;-61
2021/07/31 04:36:00;;;;;;;;;;;17.20;80.10;;;;;;5053727;28;19924;-61
2021/07/31 04:38:26;;;;;;;;;;;17.20;79.80;;;;;;5070486;28;19972;-62
2021/07/31 04:40:51;;;;;;;;;;;17.20;79.60;;;;;;5071439;28;19917;-61
2021/07/31 04:43:17;;;;;;;;;;;17.20;79.50;;;;;;5071528;28;19917;-61
2021/07/31 04:45:42;;;;;;;;;;;17.20;79.50;;;;;;5052970;28;19917;-61
2021/07/31 04:48:08;;;;;;;;;;;17.20;79.40;;;;;;5070882;28;19924;-61
2021/07/31 04:50:33;;;;;;;;;;;17.20;79.50;;;;;;5071525;28;19916;-61
2021/07/31 04:52:59;;;;;;;;;;;17.30;79.10;;;;;;5074383;28;19916;-61
2021/07/31 04:55:25;;;;;;;;;;;17.30;78.90;;;;;;5075357;28;19923;-61
2021/07/31 04:57:50;;;;;;;;;;;17.40;78.90;;;;;;5074461;28;19938;-62
2021/07/31 05:00:16;;;;;;;;;;;17.50;78.80;;;;;;5057405;28;19955;-61
2021/07/31 05:02:41;;;;;;;;;;;17.50;78.40;;;;;;5075204;28;19991;-62
2021/07/31 05:05:07;;;;;;;;;;;17.50;78.20;;;;;;5074848;28;19931;-62
2021/07/31 05:07:33;;;;;;;;;;;17.60;78.20;;;;;;5074822;28;19969;-61
2021/07/31 05:09:58;;;;;;;;;;;17.70;77.80;;;;;;5075145;28;19963;-61
2021/07/31 05:12:24;;;;;;;;;;;17.70;77.30;;;;;;5074764;28;19917;-61
2021/07/31 05:14:51;;;;;;;;;;;17.70;77.20;;;;;;5075031;28;19938;-62
2021/07/31 05:17:19;;;;;;;;;;;17.70;77.00;;;;;;5074676;28;19917;-61
2021/07/31 05:19:45;;;;;;;;;;;17.60;77.00;;;;;;5074628;28;19917;-61
2021/07/31 05:22:10;;;;;;;;;;;17.60;76.80;;;;;;5074952;28;20296;-59
2021/07/31 05:24:36;;;;;;;;;;;17.60;76.80;;;;;;5056455;28;19920;-62
2021/07/31 05:27:02;;;;;;;;;;;17.60;76.80;;;;;;5056408;28;20161;-61
2021/07/31 05:29:27;;;;;;;;;;;17.60;76.90;;;;;;5074828;28;19920;-61
2021/07/31 05:31:53;;;;;;;;;;;17.60;76.80;;;;;;5074087;28;20360;-62
2021/07/31 05:34:18;;;;;;;;;;;17.60;76.50;;;;;;5074706;28;19946;-61
2021/07/31 05:36:44;;;;;;;;;;;17.60;76.40;;;;;;5074342;28;20368;-61
2021/07/31 05:39:11;;;;;;;;;;;17.60;76.50;;;;;;5073929;28;19939;-62
2021/07/31 05:41:37;;;;;;;;;;;17.60;76.60;;;;;;5040142;28;19920;-61
2021/07/31 05:44:03;;;;;;;;;;;17.70;76.40;;;;;;5073788;28;19927;-61
2021/07/31 05:46:28;;;;;;;;;;;17.70;76.00;;;;;;5074430;28;19920;-61
2021/07/31 05:48:54;;;;;;;;;;;17.70;75.90;;;;;;5073921;28;19973;-60
2021/07/31 05:54:47;;;;;;;;;;;17.70;75.90;;;;;;5073813;28;20008;-62
2021/07/31 05:57:13;;;;;;;;;;;17.80;75.70;;;;;;5056056;28;19948;-61
2021/07/31 05:59:39;;;;;;;;;;;17.80;75.60;;;;;;5073354;28;19923;-62
2021/07/31 06:02:05;;;;;;;;;;;17.90;75.50;;;;;;5073990;28;19920;-61
2021/07/31 06:04:31;;;;;;;;;;;18.00;75.70;;;;;;5072900;28;19928;-61
2021/07/31 06:06:56;;;;;;;;;;;18.00;75.10;;;;;;5055435;28;19920;-62
2021/07/31 06:09:22;;;;;;;;;;;18.10;74.90;;;;;;5073989;28;19917;-62
2021/07/31 06:11:47;;;;;;;;;;;18.10;74.70;;;;;;5073924;28;20015;-61
2021/07/31 06:17:44;;;;;;;;;;;18.20;74.00;;;;;;5072737;28;20404;-61
2021/07/31 06:20:54;;;;;;;;;;;18.20;74.00;;;;;;5072672;28;19923;-61
2021/07/31 06:23:42;;;;;;;;;;;18.20;73.90;;;;;;5072953;28;20011;-61
2021/07/31 06:26:09;;;;;;;;;;;18.20;73.80;;;;;;5073185;28;19921;-62
2021/07/31 06:28:34;;;;;;;;;;;18.30;73.90;;;;;;5055385;28;20379;-61
2021/07/31 06:31:00;;;;;;;;;;;18.30;73.30;;;;;;5055639;28;20287;-61
2021/07/31 06:33:26;;;;;;;;;;;18.30;73.20;;;;;;5073088;28;19923;-62
2021/07/31 06:35:51;;;;;;;;;;;18.30;73.20;;;;;;5073439;28;19923;-62
2021/07/31 06:38:17;;;;;;;;;;;18.30;73.10;;;;;;5055302;28;19920;-61
2021/07/31 06:40:45;;;;;;;;;;;18.30;72.80;;;;;;5055136;28;20011;-61
2021/07/31 06:43:11;;;;;;;;;;;18.30;72.80;;;;;;5073226;28;19917;-64
2021/07/31 06:45:36;;;;;;;;;;;18.30;72.70;;;;;;5038405;28;20285;-66
2021/07/31 06:48:02;;;;;;;;;;;18.40;72.70;;;;;;5082500;22;19924;-62
2021/07/31 06:50:27;;;;;;;;;;;18.40;72.40;;;;;;5093654;28;20417;-62
2021/07/31 06:52:53;;;;;;;;;;;18.40;72.10;;;;;;5093105;28;19916;-62
2021/07/31 06:55:18;;;;;;;;;;;18.40;71.80;;;;;;5075188;28;19916;-62
2021/07/31 06:57:44;;;;;;;;;;;18.40;71.70;;;;;;5074840;28;20003;-62
2021/07/31 07:00:10;;;;;;;;;;;18.30;71.50;;;;;;5057914;28;19916;-62
2021/07/31 07:02:35;;;;;;;;;;;18.30;72.00;;;;;;5093101;28;19922;-62
2021/07/31 07:05:02;;;;;;;;;;;18.60;72.40;;;;;;5092561;28;19999;-62
2021/07/31 07:07:27;;;;;;;;;;;18.90;72.40;;;;;;5092705;28;19920;-62
2021/07/31 07:09:53;;;;;;;;;;;19.20;72.00;;;;;;5075120;28;19916;-62
2021/07/31 07:12:18;;;;;;;;;;;19.50;71.70;;;;;;5092244;28;19916;-63
2021/07/31 07:14:44;;;;;;;;;;;19.70;70.50;;;;;;5092606;28;20049;-62
2021/07/31 07:17:09;;;;;;;;;;;19.80;69.50;;;;;;5092129;28;19923;-62
2021/07/31 07:19:35;;;;;;;;;;;19.70;68.80;;;;;;5092821;28;19924;-62
2021/07/31 07:22:01;;;;;;;;;;;19.60;68.40;;;;;;5092626;28;20005;-62
2021/07/31 07:24:26;;;;;;;;;;;19.50;68.30;;;;;;5092149;28;19920;-62
2021/07/31 07:26:52;;;;;;;;;;;19.50;68.60;;;;;;5074317;28;20576;-62
2021/07/31 07:29:18;;;;;;;;;;;19.60;68.40;;;;;;5074228;28;19963;-62
2021/07/31 07:31:43;;;;;;;;;;;19.70;68.60;;;;;;5092091;28;19916;-62
2021/07/31 07:34:09;;;;;;;;;;;19.90;68.20;;;;;;5092604;28;19966;-62
2021/07/31 07:36:34;;;;;;;;;;;20.00;68.10;;;;;;5092304;28;19916;-62
2021/07/31 07:39:00;;;;;;;;;;;19.90;67.20;;;;;;5091553;28;19916;-62
2021/07/31 07:41:25;;;;;;;;;;;19.80;66.50;;;;;;5074264;28;20006;-62
2021/07/31 07:43:51;;;;;;;;;;;19.60;66.60;;;;;;5048600;28;19921;-63
2021/07/31 07:46:17;;;;;;;;;;;19.50;66.40;;;;;;5066214;28;20208;-62
2021/07/31 07:48:43;;;;;;;;;;;19.20;66.50;;;;;;5073683;28;19959;-62
2021/07/31 07:51:09;;;;;;;;;;;19.10;67.00;;;;;;5091967;28;19916;-63
2021/07/31 07:53:35;;;;;;;;;;;19.10;67.50;;;;;;5092243;28;20383;-62
2021/07/31 07:56:01;;;;;;;;;;;19.10;67.70;;;;;;5092149;28;19923;-62
2021/07/31 07:58:26;;;;;;;;;;;19.20;67.80;;;;;;5091307;28;19931;-62
2021/07/31 08:00:52;;;;;;;;;;;19.30;68.10;;;;;;5073895;28;19916;-62
2021/07/31 08:03:17;;;;;;;;;;;19.60;68.00;;;;;;5073403;28;19920;-62
2021/07/31 08:05:43;;;;;;;;;;;20.00;68.20;;;;;;5073396;28;19965;-63
2021/07/31 08:08:08;;;;;;;;;;;21.00;71.60;;;;;;5091709;28;19916;-63
2021/07/31 08:10:34;;;;;;;;;;;22.60;71.10;;;;;;5091453;28;19916;-63
2021/07/31 08:13:00;;;;;;;;;;;23.00;64.30;;;;;;5091869;28;19965;-62
2021/07/31 08:15:26;;;;;;;;;;;22.40;61.40;;;;;;5091996;28;20331;-63
2021/07/31 08:17:51;;;;;;;;;;;21.60;60.90;;;;;;5090968;28;19920;-63
2021/07/31 08:20:17;;;;;;;;;;;20.90;61.20;;;;;;5073761;28;19912;-62
2021/07/31 08:22:43;;;;;;;;;;;20.40;62.30;;;;;;5091669;28;19916;-62
2021/07/31 08:25:09;;;;;;;;;;;20.30;64.20;;;;;;5091160;28;22374;-63
2021/07/31 08:27:35;;;;;;;;;;;20.80;65.80;;;;;;5090704;28;20391;-62
2021/07/31 08:30:00;;;;;;;;;;;21.20;64.30;;;;;;5091425;28;19920;-63
2021/07/31 08:32:26;;;;;;;;;;;21.50;63.40;;;;;;5091250;28;19916;-62
2021/07/31 08:34:51;;;;;;;;;;;21.60;62.10;;;;;;5091683;28;20368;-62
2021/07/31 08:37:17;;;;;;;;;;;21.70;62.50;;;;;;5072764;28;20442;-62
2021/07/31 08:39:43;;;;;;;;;;;21.70;61.60;;;;;;5073459;28;19958;-62
2021/07/31 08:42:12;;;;;;;;;;;21.90;62.50;;;;;;5091455;28;19995;-62
2021/07/31 08:44:38;;;;;;;;;;;22.50;63.70;;;;;;5091052;28;20061;-63
2021/07/31 08:47:04;;;;;;;;;;;22.90;61.40;;;;;;5091025;28;19970;-62
2021/07/31 08:49:31;;;;;;;;;;;22.70;59.30;;;;;;5090859;28;19920;-63
2021/07/31 08:51:58;;;;;;;;;;;22.20;58.60;;;;;;5091410;28;19927;-62
2021/07/31 08:54:23;;;;;;;;;;;21.70;58.80;;;;;;5091228;28;19923;-62
2021/07/31 08:56:49;;;;;;;;;;;21.10;59.40;;;;;;5090565;28;19920;-62
2021/07/31 08:59:15;;;;;;;;;;;20.70;60.20;;;;;;5091323;28;20327;-62
2021/07/31 09:01:40;;;;;;;;;;;20.40;61.10;;;;;;5073236;28;20003;-62
2021/07/31 09:04:14;;;;;;;;;;;20.60;63.00;;;;;;5090766;28;19920;-61
2021/07/31 09:06:40;;;;;;;;;;;20.90;63.20;;;;;;5091043;28;20004;-61
2021/07/31 09:09:06;;;;;;;;;;;21.40;62.80;;;;;;5072351;28;20003;-61
2021/07/31 09:11:32;;;;;;;;;;;21.60;61.80;;;;;;5091154;28;19916;-61
2021/07/31 09:14:10;;;;;;;;;;;22.00;62.10;;;;;;5091179;28;19942;-61
2021/07/31 09:16:36;;;;;;;;;;;23.00;63.50;;;;;;5090666;28;19967;-62
2021/07/31 09:19:02;;;;;;;;;;;24.40;62.20;;;;;;5090965;28;19919;-62
2021/07/31 09:21:29;;;;;;;;;;;24.40;57.60;;;;;;5090645;28;20364;-61
2021/07/31 09:23:55;;;;;;;;;;;23.80;56.20;;;;;;5091047;28;19920;-62
2021/07/31 09:26:23;;;;;;;;;;;23.10;55.80;;;;;;5073158;28;20299;-61
2021/07/31 09:28:57;;;;;;;;;;;22.30;56.40;;;;;;5089991;28;19995;-61
2021/07/31 09:31:23;;;;;;;;;;;21.90;57.40;;;;;;5090981;28;19942;-62
2021/07/31 09:33:49;;;;;;;;;;;22.50;60.00;;;;;;5090744;28;19916;-62
2021/07/31 09:36:15;;;;;;;;;;;24.40;62.50;;;;;;5073057;28;19916;-62
2021/07/31 09:38:45;;;;;;;;;;;25.40;57.90;;;;;;5093443;28;19987;-62
2021/07/31 09:41:36;;;;;;;;;;;25.30;54.70;;;;;;5076283;28;20303;-62
2021/07/31 09:44:15;;;;;;;;;;;24.90;52.90;;;;;;5075943;28;19920;-61
2021/07/31 09:46:51;;;;;;;;;;;24.10;52.40;;;;;;5094297;28;19923;-62
2021/07/31 09:49:18;;;;;;;;;;;23.40;53.10;;;;;;5075712;28;20333;-62
2021/07/31 09:51:50;;;;;;;;;;;23.00;54.10;;;;;;5094480;28;19916;-61
2021/07/31 09:54:17;;;;;;;;;;;22.60;54.60;;;;;;5075623;28;19916;-62
2021/07/31 09:56:43;;;;;;;;;;;22.30;54.90;;;;;;5094375;28;19924;-61
2021/07/31 09:59:09;;;;;;;;;;;21.90;55.30;;;;;;5094240;28;19927;-61
2021/07/31 10:01:39;;;;;;;;;;;21.70;56.00;;;;;;5075518;28;19985;-62
2021/07/31 10:04:05;;;;;;;;;;;21.40;56.40;;;;;;5076041;28;19927;-62
2021/07/31 10:06:32;;;;;;;;;;;21.20;56.80;;;;;;5075583;28;19916;-63
2021/07/31 10:08:58;;;;;;;;;;;21.10;57.60;;;;;;5075582;28;19923;-63
2021/07/31 10:11:24;;;;;;;;;;;21.10;58.00;;;;;;5075973;28;19923;-64
2021/07/31 10:13:49;;;;;;;;;;;21.10;58.00;;;;;;5093750;28;19916;-63
2021/07/31 10:16:16;;;;;;;;;;;21.10;58.10;;;;;;5094059;28;19957;-64
2021/07/31 10:18:55;;;;;;;;;;;21.00;57.90;;;;;;5059030;28;19923;-64
2021/07/31 10:21:20;;;;;;;;;;;20.70;58.10;;;;;;5093605;28;19916;-63
2021/07/31 10:24:03;;;;;;;;;;;20.50;58.80;;;;;;5075595;28;19916;-64
2021/07/31 10:26:29;;;;;;;;;;;20.50;59.80;;;;;;5093495;28;19923;-63
2021/07/31 10:29:15;;;;;;;;;;;20.40;60.00;;;;;;5093382;28;20018;-63
2021/07/31 10:31:40;;;;;;;;;;;20.30;60.20;;;;;;5093423;28;19916;-66
2021/07/31 10:34:06;;;;;;;;;;;20.30;61.20;;;;;;5075653;28;19923;-64
2021/07/31 10:36:31;;;;;;;;;;;20.50;61.70;;;;;;5075131;28;20330;-63
2021/07/31 10:39:15;;;;;;;;;;;20.70;61.70;;;;;;5093293;28;20286;-64
2021/07/31 10:41:57;;;;;;;;;;;20.70;60.70;;;;;;5093257;28;20435;-63
2021/07/31 10:44:23;;;;;;;;;;;20.40;60.60;;;;;;5075259;28;19927;-63
2021/07/31 10:46:51;;;;;;;;;;;20.20;61.10;;;;;;5092882;28;20349;-63
2021/07/31 10:49:49;;;;;;;;;;;20.20;61.50;;;;;;5092713;28;19996;-64
2021/07/31 10:52:33;;;;;;;;;;;20.20;62.10;;;;;;5037227;28;19921;-63
2021/07/31 10:55:01;;;;;;;;;;;20.50;62.30;;;;;;5093270;28;19927;-63
2021/07/31 10:58:02;;;;;;;;;;;20.90;62.50;;;;;;5074206;28;19916;-63
2021/07/31 11:00:37;;;;;;;;;;;21.60;62.40;;;;;;5030300;28;20365;-63
2021/07/31 11:03:04;;;;;;;;;;;22.50;61.20;;;;;;5083916;28;19965;-64
2021/07/31 11:05:48;;;;;;;;;;;23.00;59.60;;;;;;5092631;28;19920;-63
2021/07/31 11:08:14;;;;;;;;;;;23.30;58.50;;;;;;5092712;28;19920;-63
2021/07/31 11:10:44;;;;;;;;;;;23.50;58.20;;;;;;5074384;28;19920;-63
2021/07/31 11:13:16;;;;;;;;;;;23.50;56.70;;;;;;5074737;28;19916;-64
2021/07/31 11:15:58;;;;;;;;;;;23.30;56.80;;;;;;5092496;28;19969;-63
2021/07/31 11:18:42;;;;;;;;;;;23.20;57.00;;;;;;5074260;28;19916;-63
2021/07/31 11:21:19;;;;;;;;;;;23.20;57.10;;;;;;5092540;28;19999;-63
2021/07/31 11:23:48;;;;;;;;;;;23.30;56.80;;;;;;5092165;28;19926;-63
2021/07/31 11:26:30;;;;;;;;;;;23.30;56.40;;;;;;5092749;28;19947;-63
2021/07/31 11:28:55;;;;;;;;;;;23.20;56.20;;;;;;5092237;28;19955;-63
2021/07/31 11:31:21;;;;;;;;;;;23.30;56.60;;;;;;5092093;28;19950;-63
2021/07/31 11:33:57;;;;;;;;;;;23.10;55.60;;;;;;5092503;28;20011;-63
2021/07/31 11:36:22;;;;;;;;;;;22.80;55.40;;;;;;5091995;28;19938;-63
2021/07/31 11:38:49;;;;;;;;;;;22.40;56.00;;;;;;5074122;28;20388;-63
2021/07/31 11:41:15;;;;;;;;;;;22.30;57.00;;;;;;5091918;28;19916;-63
2021/07/31 11:43:48;;;;;;;;;;;22.60;57.60;;;;;;5092248;28;19920;-63
2021/07/31 11:46:24;;;;;;;;;;;23.00;57.90;;;;;;5092522;28;19999;-63
2021/07/31 11:48:50;;;;;;;;;;;23.80;58.40;;;;;;5091351;28;19931;-63
2021/07/31 11:51:15;;;;;;;;;;;24.30;56.40;;;;;;5092157;28;20281;-64
2021/07/31 11:53:41;;;;;;;;;;;24.10;54.70;;;;;;5073592;28;20002;-63
2021/07/31 11:56:23;;;;;;;;;;;23.50;54.10;;;;;;5092103;28;19924;-63
2021/07/31 11:58:50;;;;;;;;;;;23.00;54.40;;;;;;5091372;28;19978;-63
2021/07/31 12:01:17;;;;;;;;;;;22.30;55.20;;;;;;5091152;28;19970;-63
2021/07/31 12:03:47;;;;;;;;;;;21.70;56.60;;;;;;5092006;28;20011;-63
2021/07/31 12:06:30;;;;;;;;;;;21.30;57.20;;;;;;5091629;28;19916;-63
2021/07/31 12:08:58;;;;;;;;;;;21.00;58.40;;;;;;5091792;28;20007;-63
2021/07/31 12:11:31;;;;;;;;;;;20.90;59.20;;;;;;5091310;28;20006;-63
2021/07/31 12:13:57;;;;;;;;;;;20.70;59.40;;;;;;5091801;28;19916;-63
2021/07/31 12:16:26;;;;;;;;;;;20.60;60.00;;;;;;5073226;28;19993;-63
2021/07/31 12:18:51;;;;;;;;;;;20.60;60.30;;;;;;5073295;28;19920;-63
2021/07/31 12:21:27;;;;;;;;;;;20.40;60.30;;;;;;5091115;28;20328;-64
2021/07/31 12:23:53;;;;;;;;;;;20.30;60.60;;;;;;5091449;28;19943;-63
2021/07/31 12:26:28;;;;;;;;;;;20.20;61.20;;;;;;5091737;28;20379;-63
2021/07/31 12:28:56;;;;;;;;;;;20.10;62.10;;;;;;5090860;28;19916;-67
2021/07/31 12:31:22;;;;;;;;;;;19.90;63.50;;;;;;5073418;28;20287;-68
2021/07/31 12:33:47;;;;;;;;;;;19.80;63.80;;;;;;5073122;28;19919;-67
2021/07/31 12:36:13;;;;;;;;;;;19.60;64.50;;;;;;5091528;28;19927;-68
2021/07/31 12:38:39;;;;;;;;;;;19.40;65.20;;;;;;5073278;28;19916;-67
2021/07/31 12:41:04;;;;;;;;;;;19.30;66.00;;;;;;5091091;28;20099;-68
2021/07/31 12:43:30;;;;;;;;;;;19.20;66.80;;;;;;5091645;28;19916;-68
2021/07/31 12:45:58;;;;;;;;;;;19.20;67.40;;;;;;5090871;28;19970;-67
2021/07/31 12:48:23;;;;;;;;;;;19.10;67.70;;;;;;5091497;28;20368;-68
2021/07/31 12:50:49;;;;;;;;;;;19.10;68.20;;;;;;5091390;28;19920;-67
2021/07/31 12:53:18;;;;;;;;;;;19.10;68.40;;;;;;5091122;28;19917;-68
2021/07/31 12:55:44;;;;;;;;;;;19.10;68.60;;;;;;5091396;28;19916;-68
2021/07/31 12:58:11;;;;;;;;;;;19.20;68.80;;;;;;5072791;28;20395;-68
2021/07/31 13:00:38;;;;;;;;;;;19.10;69.10;;;;;;5091129;28;19916;-67
2021/07/31 13:03:06;;;;;;;;;;;19.10;69.20;;;;;;5091079;28;19916;-68
2021/07/31 13:05:31;;;;;;;;;;;19.00;69.80;;;;;;5090664;28;19920;-68
2021/07/31 13:08:00;;;;;;;;;;;18.90;70.40;;;;;;5072837;28;19916;-68
2021/07/31 13:10:26;;;;;;;;;;;18.90;70.60;;;;;;5073092;28;19939;-68
2021/07/31 13:12:53;;;;;;;;;;;18.90;71.00;;;;;;5074175;28;20360;-67
2021/07/31 13:15:19;;;;;;;;;;;18.90;71.20;;;;;;5077256;28;19991;-67
2021/07/31 13:17:45;;;;;;;;;;;18.90;71.80;;;;;;5059463;28;19947;-66
2021/07/31 13:20:12;;;;;;;;;;;19.10;72.00;;;;;;5076845;28;19923;-67
2021/07/31 13:22:39;;;;;;;;;;;19.20;72.30;;;;;;5095040;28;19920;-68
2021/07/31 13:25:05;;;;;;;;;;;19.40;72.10;;;;;;5094574;28;19928;-67
2021/07/31 13:27:30;;;;;;;;;;;19.60;72.20;;;;;;5076478;28;20383;-68
2021/07/31 13:29:56;;;;;;;;;;;19.70;71.30;;;;;;5094757;28;19998;-68
2021/07/31 13:32:21;;;;;;;;;;;19.70;70.40;;;;;;5059743;28;20370;-68
2021/07/31 13:34:47;;;;;;;;;;;19.50;70.50;;;;;;5076628;28;20353;-68
2021/07/31 13:37:24;;;;;;;;;;;19.10;71.00;;;;;;5075911;28;19958;-68
2021/07/31 13:39:52;;;;;;;;;;;18.90;72.30;;;;;;5059601;28;19916;-68
2021/07/31 13:42:18;;;;;;;;;;;18.60;73.00;;;;;;5076204;28;19979;-67
2021/07/31 13:44:50;;;;;;;;;;;18.50;74.00;;;;;;5076653;28;20027;-67
2021/07/31 13:47:16;;;;;;;;;;;18.20;74.70;;;;;;5093826;28;19916;-67
2021/07/31 13:49:41;;;;;;;;;;;18.10;75.90;;;;;;5059605;28;19977;-68
2021/07/31 13:52:07;;;;;;;;;;;18.00;76.60;;;;;;5094609;28;20299;-68
2021/07/31 13:54:33;;;;;;;;;;;17.90;77.30;;;;;;5093843;28;20222;-67
2021/07/31 13:56:59;;;;;;;;;;;17.90;77.90;;;;;;5094077;28;19924;-67
2021/07/31 13:59:25;;;;;;;;;;;17.90;78.60;;;;;;5076185;28;19916;-68
2021/07/31 14:01:51;;;;;;;;;;;18.00;78.80;;;;;;5059157;28;20398;-68
2021/07/31 14:04:17;;;;;;;;;;;18.00;78.60;;;;;;5094114;28;19951;-67
2021/07/31 14:06:43;;;;;;;;;;;17.90;78.70;;;;;;5075451;28;20340;-63
2021/07/31 14:09:08;;;;;;;;;;;17.80;78.80;;;;;;5093967;28;20395;-67
2021/07/31 14:11:34;;;;;;;;;;;17.70;79.30;;;;;;5075943;28;19920;-71
2021/07/31 14:13:59;;;;;;;;;;;17.70;80.20;;;;;;5093870;28;19923;-68
2021/07/31 14:16:25;;;;;;;;;;;18.00;81.90;;;;;;5075918;28;19916;-68
2021/07/31 14:18:51;;;;;;;;;;;18.40;82.30;;;;;;5075610;28;19916;-68
2021/07/31 14:21:16;;;;;;;;;;;18.70;81.40;;;;;;5093345;28;19982;-67
2021/07/31 14:23:42;;;;;;;;;;;18.90;81.20;;;;;;5075053;28;19920;-69
2021/07/31 14:26:09;;;;;;;;;;;19.20;81.00;;;;;;5093743;28;20399;-69
2021/07/31 14:28:34;;;;;;;;;;;19.40;79.80;;;;;;5074924;28;19916;-68
2021/07/31 14:31:00;;;;;;;;;;;19.50;79.70;;;;;;5075488;28;19923;-68
2021/07/31 14:33:26;;;;;;;;;;;19.60;80.00;;;;;;5093103;28;20163;-65
2021/07/31 14:35:51;;;;;;;;;;;19.80;79.90;;;;;;5093726;28;19941;-67